Time;durP1;ratioP1;P1;durP2;ratioP2;P2;SDS_P1;SDS_P2;PMS_P1;PMS_P2;Temp;Humidity;BMP_temperature;BMP_pressure;BME280_temperature;BME280_humidity;BME280_pressure;Samples;Min_cycle;Max_cycle;Signal;HPM_P1;HPM_P2
2023/10/20 00:01:52;;;;;;;6.32;5.82;;;;;;;;;;5096660;28;20117;-72
2023/10/20 00:04:20;;;;;;;6.57;5.57;;;;;;;;;;5096507;28;20140;-72
2023/10/20 00:06:49;;;;;;;5.70;5.20;;;;;;;;;;5097099;28;20130;-71
2023/10/20 00:09:18;;;;;;;5.65;5.13;;;;;;;;;;5093421;28;20047;-72
2023/10/20 00:11:47;;;;;;;5.63;5.13;;;;;;;;;;5095865;28;20044;-70
2023/10/20 00:14:17;;;;;;;5.80;5.35;;;;;;;;;;5095574;28;20059;-72
2023/10/20 00:16:45;;;;;;;6.10;5.50;;;;;;;;;;5100097;28;20333;-70
2023/10/20 00:19:14;;;;;;;5.55;5.05;;;;;;;;;;5097838;28;20092;-72
2023/10/20 00:21:43;;;;;;;6.38;5.25;;;;;;;;;;5092897;28;20075;-71
2023/10/20 00:24:12;;;;;;;6.05;5.45;;;;;;;;;;5098727;28;20130;-72
2023/10/20 00:26:40;;;;;;;5.53;5.03;;;;;;;;;;5096461;28;20404;-72
2023/10/20 00:29:10;;;;;;;5.47;4.97;;;;;;;;;;5095458;28;20542;-72
2023/10/20 00:31:39;;;;;;;5.90;5.30;;;;;;;;;;5097657;28;20052;-72
2023/10/20 00:34:07;;;;;;;6.78;5.65;;;;;;;;;;5098001;27;20134;-72
2023/10/20 00:36:36;;;;;;;5.53;5.07;;;;;;;;;;5101633;28;20557;-71
2023/10/20 00:39:04;;;;;;;5.50;5.03;;;;;;;;;;5099086;27;20044;-72
2023/10/20 00:41:34;;;;;;;5.30;4.88;;;;;;;;;;5100986;28;20472;-72
2023/10/20 00:44:03;;;;;;;5.72;5.22;;;;;;;;;;5100945;27;20039;-70
2023/10/20 00:46:33;;;;;;;5.32;4.82;;;;;;;;;;5101965;27;20047;-72
2023/10/20 00:49:03;;;;;;;6.65;5.50;;;;;;;;;;5103999;27;20112;-71
2023/10/20 00:51:31;;;;;;;5.97;5.45;;;;;;;;;;5106568;27;20044;-72
2023/10/20 00:54:00;;;;;;;5.32;4.82;;;;;;;;;;5098071;27;20112;-72
2023/10/20 00:56:29;;;;;;;5.93;5.32;;;;;;;;;;5099596;27;20358;-72
2023/10/20 00:58:57;;;;;;;5.60;5.10;;;;;;;;;;5099663;27;20050;-72
2023/10/20 01:01:26;;;;;;;4.88;4.47;;;;;;;;;;5100838;27;20064;-71
2023/10/20 01:03:55;;;;;;;5.47;4.97;;;;;;;;;;5096946;28;20054;-72
2023/10/20 01:06:25;;;;;;;6.20;5.60;;;;;;;;;;5100875;27;20044;-72
2023/10/20 01:08:56;;;;;;;5.95;5.32;;;;;;;;;;5101566;27;20085;-72
2023/10/20 01:11:24;;;;;;;6.65;6.00;;;;;;;;;;5100177;27;20071;-72
2023/10/20 01:13:53;;;;;;;5.85;5.30;;;;;;;;;;5097790;27;20412;-71
2023/10/20 01:16:21;;;;;;;6.05;5.45;;;;;;;;;;5097544;28;20135;-72
2023/10/20 01:18:50;;;;;;;5.38;4.95;;;;;;;;;;5097321;28;20043;-72
2023/10/20 01:21:20;;;;;;;6.05;5.55;;;;;;;;;;5097498;27;20039;-72
2023/10/20 01:23:48;;;;;;;5.57;5.07;;;;;;;;;;5099397;27;20389;-72
2023/10/20 01:26:18;;;;;;;7.82;5.40;;;;;;;;;;5099353;27;20047;-72
2023/10/20 01:28:46;;;;;;;5.78;5.18;;;;;;;;;;5100279;28;20048;-72
2023/10/20 01:31:14;;;;;;;6.15;5.55;;;;;;;;;;5098858;27;20545;-72
2023/10/20 01:33:42;;;;;;;5.97;5.47;;;;;;;;;;5099784;27;20122;-72
2023/10/20 01:36:11;;;;;;;5.45;5.05;;;;;;;;;;5097257;28;20083;-71
2023/10/20 01:38:39;;;;;;;6.07;5.47;;;;;;;;;;5098949;28;20071;-71
2023/10/20 01:41:08;;;;;;;5.40;5.00;;;;;;;;;;5100698;27;20048;-72
2023/10/20 01:43:37;;;;;;;6.15;5.55;;;;;;;;;;5099364;27;20136;-73
2023/10/20 01:46:06;;;;;;;6.60;5.90;;;;;;;;;;5100716;27;20101;-72
2023/10/20 01:48:34;;;;;;;6.47;5.80;;;;;;;;;;5101984;27;20431;-70
2023/10/20 01:51:03;;;;;;;6.07;5.57;;;;;;;;;;5095773;28;20100;-72
2023/10/20 01:53:32;;;;;;;5.80;5.35;;;;;;;;;;5097716;28;20047;-72
2023/10/20 01:56:00;;;;;;;6.15;5.63;;;;;;;;;;5098571;27;20135;-72
2023/10/20 01:58:29;;;;;;;9.35;6.15;;;;;;;;;;5095736;27;20057;-71
2023/10/20 02:00:58;;;;;;;7.80;7.07;;;;;;;;;;5093716;27;20079;-72
2023/10/20 02:03:27;;;;;;;6.50;5.90;;;;;;;;;;5095515;27;20134;-72
2023/10/20 02:05:56;;;;;;;7.10;6.40;;;;;;;;;;5100630;27;20046;-72
2023/10/20 02:08:24;;;;;;;7.38;6.68;;;;;;;;;;5100101;28;20127;-72
2023/10/20 02:10:52;;;;;;;6.45;5.85;;;;;;;;;;5100477;27;20477;-72
2023/10/20 02:13:21;;;;;;;6.95;6.25;;;;;;;;;;5102514;28;20570;-71
2023/10/20 02:15:51;;;;;;;7.20;6.53;;;;;;;;;;5101263;28;20051;-72
2023/10/20 02:18:20;;;;;;;8.35;6.78;;;;;;;;;;5098399;28;20089;-71
2023/10/20 02:20:57;;;;;;;7.80;7.00;;;;;;;;;;5101920;28;20047;-71
2023/10/20 02:23:26;;;;;;;8.02;7.28;;;;;;;;;;5098608;27;20049;-71
2023/10/20 02:25:58;;;;;;;6.72;6.13;;;;;;;;;;5100928;27;20128;-71
2023/10/20 02:28:26;;;;;;;7.82;7.03;;;;;;;;;;5092455;27;20056;-71
2023/10/20 02:30:55;;;;;;;8.20;7.40;;;;;;;;;;5097744;28;20474;-71
2023/10/20 02:33:25;;;;;;;7.85;7.00;;;;;;;;;;5097041;28;20040;-70
2023/10/20 02:35:54;;;;;;;7.07;6.47;;;;;;;;;;5096935;27;20044;-70
2023/10/20 02:38:22;;;;;;;7.85;7.05;;;;;;;;;;5095894;27;20497;-70
2023/10/20 02:40:51;;;;;;;7.47;6.85;;;;;;;;;;5097425;27;20044;-70
2023/10/20 02:43:19;;;;;;;8.18;7.20;;;;;;;;;;5096693;28;20477;-71
2023/10/20 02:45:48;;;;;;;8.98;7.45;;;;;;;;;;5101352;28;20101;-71
2023/10/20 02:48:17;;;;;;;8.80;7.90;;;;;;;;;;5097648;27;20116;-72
2023/10/20 02:50:47;;;;;;;9.70;8.38;;;;;;;;;;5100643;28;20065;-72
2023/10/20 02:53:15;;;;;;;8.60;7.10;;;;;;;;;;5098570;28;20138;-72
2023/10/20 02:55:44;;;;;;;9.25;7.90;;;;;;;;;;5098818;28;20458;-72
2023/10/20 02:58:13;;;;;;;9.40;8.35;;;;;;;;;;5100104;27;20132;-72
2023/10/20 03:00:42;;;;;;;8.63;7.80;;;;;;;;;;5094785;27;20504;-72
2023/10/20 03:03:12;;;;;;;8.13;7.32;;;;;;;;;;5097378;28;20044;-72
2023/10/20 03:05:42;;;;;;;8.27;7.45;;;;;;;;;;5097228;28;20036;-71
2023/10/20 03:08:12;;;;;;;8.77;7.85;;;;;;;;;;5100634;27;20051;-72
2023/10/20 03:10:40;;;;;;;9.23;7.88;;;;;;;;;;5096625;28;20397;-72
2023/10/20 03:13:08;;;;;;;8.65;7.70;;;;;;;;;;5100442;27;20138;-72
2023/10/20 03:15:38;;;;;;;9.05;8.02;;;;;;;;;;5100149;27;20063;-72
2023/10/20 03:18:06;;;;;;;7.78;7.00;;;;;;;;;;5100648;28;20093;-71
2023/10/20 03:20:36;;;;;;;10.15;8.43;;;;;;;;;;5097397;28;20051;-72
2023/10/20 03:23:05;;;;;;;8.77;7.88;;;;;;;;;;5097799;28;20481;-72
2023/10/20 03:25:34;;;;;;;9.23;8.32;;;;;;;;;;5092657;28;20044;-72
2023/10/20 03:28:03;;;;;;;9.15;7.85;;;;;;;;;;5095643;27;20052;-72
2023/10/20 03:30:31;;;;;;;8.50;7.63;;;;;;;;;;5093645;28;20043;-72
2023/10/20 03:33:00;;;;;;;9.27;8.27;;;;;;;;;;5100039;28;20047;-71
2023/10/20 03:35:28;;;;;;;10.07;9.07;;;;;;;;;;5096525;27;20058;-72
2023/10/20 03:37:58;;;;;;;9.38;8.00;;;;;;;;;;5097792;27;20035;-72
2023/10/20 03:40:30;;;;;;;8.68;7.88;;;;;;;;;;5099433;28;20108;-72
2023/10/20 03:43:00;;;;;;;9.13;8.23;;;;;;;;;;5095724;28;20666;-70
2023/10/20 03:45:28;;;;;;;9.35;7.55;;;;;;;;;;5098258;28;20131;-72
2023/10/20 03:47:58;;;;;;;8.60;7.70;;;;;;;;;;5099405;27;20130;-72
2023/10/20 03:50:27;;;;;;;8.88;7.97;;;;;;;;;;5094901;28;20046;-72
2023/10/20 03:52:55;;;;;;;9.63;8.63;;;;;;;;;;5096628;28;20636;-71
2023/10/20 03:55:23;;;;;;;9.65;8.65;;;;;;;;;;5093237;28;20135;-70
2023/10/20 03:57:52;;;;;;;9.85;8.95;;;;;;;;;;5097202;27;20055;-72
2023/10/20 04:00:28;;;;;;;10.40;7.82;;;;;;;;;;5093687;28;20108;-72
2023/10/20 04:02:56;;;;;;;9.93;8.90;;;;;;;;;;5099491;28;20484;-72
2023/10/20 04:05:25;;;;;;;9.20;8.30;;;;;;;;;;5094612;28;20322;-72
2023/10/20 04:07:54;;;;;;;10.02;8.63;;;;;;;;;;5098877;27;20044;-72
2023/10/20 04:10:22;;;;;;;10.35;8.70;;;;;;;;;;5103026;27;20476;-72
2023/10/20 04:12:50;;;;;;;9.93;8.93;;;;;;;;;;5101111;27;20138;-71
2023/10/20 04:15:19;;;;;;;8.57;7.75;;;;;;;;;;5102864;27;20585;-71
2023/10/20 04:17:52;;;;;;;9.88;8.88;;;;;;;;;;5101508;27;20059;-72
2023/10/20 04:20:21;;;;;;;9.07;8.23;;;;;;;;;;5102769;27;20044;-72
2023/10/20 04:22:50;;;;;;;10.18;9.13;;;;;;;;;;5099699;27;20071;-71
2023/10/20 04:25:19;;;;;;;9.02;8.13;;;;;;;;;;5102813;27;20553;-71
2023/10/20 04:27:54;;;;;;;8.88;8.07;;;;;;;;;;5098171;27;20554;-71
2023/10/20 04:50:17;;;;;;;10.35;9.20;;;;;;;;;;5075438;28;20058;-71
2023/10/20 04:58:42;;;;;;;10.70;9.60;;;;;;;;;;5100820;27;20046;-71
2023/10/20 05:01:20;;;;;;;9.48;8.57;;;;;;;;;;5097739;28;20044;-71
2023/10/20 05:03:53;;;;;;;10.07;9.02;;;;;;;;;;5098514;27;20059;-71
2023/10/20 05:06:27;;;;;;;9.13;8.23;;;;;;;;;;5101645;27;20039;-70
2023/10/20 05:08:56;;;;;;;11.37;9.90;;;;;;;;;;5100851;27;20052;-71
2023/10/20 05:11:24;;;;;;;10.30;9.30;;;;;;;;;;5097424;27;20039;-71
2023/10/20 05:13:53;;;;;;;8.82;7.95;;;;;;;;;;5098798;27;20117;-71
2023/10/20 05:16:25;;;;;;;9.63;8.70;;;;;;;;;;5099736;27;20074;-71
2023/10/20 05:18:55;;;;;;;10.90;9.80;;;;;;;;;;5098639;27;20139;-71
2023/10/20 05:21:25;;;;;;;11.15;8.95;;;;;;;;;;5098495;27;20048;-71
2023/10/20 05:23:53;;;;;;;12.40;10.43;;;;;;;;;;5098025;27;20048;-71
2023/10/20 05:26:23;;;;;;;14.52;10.25;;;;;;;;;;5098852;27;20048;-71
2023/10/20 05:28:52;;;;;;;11.00;9.88;;;;;;;;;;5102913;27;20093;-71
2023/10/20 05:31:23;;;;;;;11.13;9.50;;;;;;;;;;5096610;27;20120;-71
2023/10/20 05:33:52;;;;;;;11.05;9.73;;;;;;;;;;5101261;27;20084;-71
2023/10/20 05:36:20;;;;;;;11.65;10.00;;;;;;;;;;5100047;27;20121;-70
2023/10/20 05:38:50;;;;;;;11.20;10.10;;;;;;;;;;5104628;27;20050;-71
2023/10/20 05:41:18;;;;;;;11.27;10.07;;;;;;;;;;5100093;28;20141;-71
2023/10/20 05:43:47;;;;;;;10.95;9.85;;;;;;;;;;5099846;27;20520;-71
2023/10/20 05:46:17;;;;;;;10.48;9.48;;;;;;;;;;5099805;27;20044;-71
2023/10/20 05:48:47;;;;;;;10.57;9.45;;;;;;;;;;5096297;27;20044;-70
2023/10/20 05:51:15;;;;;;;10.15;9.15;;;;;;;;;;5098416;28;20044;-71
2023/10/20 05:53:44;;;;;;;11.10;10.00;;;;;;;;;;5101277;27;20040;-71
2023/10/20 05:56:13;;;;;;;11.15;9.82;;;;;;;;;;5102642;27;20075;-71
2023/10/20 05:58:42;;;;;;;10.38;9.30;;;;;;;;;;5103109;27;20531;-71
2023/10/20 06:01:10;;;;;;;10.35;9.35;;;;;;;;;;5099091;28;20450;-72
2023/10/20 06:03:39;;;;;;;14.10;11.73;;;;;;;;;;5100568;27;20058;-71
2023/10/20 06:06:07;;;;;;;12.68;10.75;;;;;;;;;;5101295;27;20043;-71
2023/10/20 06:08:36;;;;;;;13.02;11.82;;;;;;;;;;5094595;27;20405;-72
2023/10/20 06:11:05;;;;;;;10.10;9.02;;;;;;;;;;5104093;27;20376;-72
2023/10/20 06:13:36;;;;;;;13.02;10.98;;;;;;;;;;5094893;27;20055;-70
2023/10/20 06:16:08;;;;;;;10.73;9.73;;;;;;;;;;5096587;28;20651;-71
2023/10/20 06:18:37;;;;;;;11.00;9.90;;;;;;;;;;5099073;27;20077;-71
2023/10/20 06:21:06;;;;;;;11.60;10.43;;;;;;;;;;5094574;28;20039;-71
2023/10/20 06:23:35;;;;;;;10.82;9.82;;;;;;;;;;5096579;28;20176;-70
2023/10/20 06:26:03;;;;;;;11.07;9.90;;;;;;;;;;5100760;27;20134;-71
2023/10/20 06:28:32;;;;;;;10.00;9.07;;;;;;;;;;5097911;28;20089;-71
2023/10/20 06:31:15;;;;;;;10.48;9.48;;;;;;;;;;5096326;28;20561;-72
2023/10/20 06:33:44;;;;;;;11.55;10.38;;;;;;;;;;5096303;28;20039;-73
2023/10/20 06:36:16;;;;;;;11.60;10.40;;;;;;;;;;5098685;28;21623;-72
2023/10/20 06:38:45;;;;;;;11.48;10.27;;;;;;;;;;5100931;27;20496;-73
2023/10/20 06:41:14;;;;;;;11.18;10.07;;;;;;;;;;5094824;28;20040;-73
2023/10/20 06:43:42;;;;;;;11.38;10.07;;;;;;;;;;5100014;28;20043;-73
2023/10/20 06:46:12;;;;;;;11.85;10.25;;;;;;;;;;5097248;27;20055;-71
2023/10/20 06:48:41;;;;;;;10.38;9.40;;;;;;;;;;5096756;27;20077;-71
2023/10/20 06:51:09;;;;;;;11.27;10.15;;;;;;;;;;5102224;28;20089;-72
2023/10/20 06:53:37;;;;;;;11.00;9.90;;;;;;;;;;5100331;28;20046;-72
2023/10/20 06:56:06;;;;;;;11.10;10.00;;;;;;;;;;5100098;28;20067;-72
2023/10/20 06:58:37;;;;;;;11.27;10.18;;;;;;;;;;5098237;28;20038;-72
2023/10/20 07:01:06;;;;;;;11.23;10.13;;;;;;;;;;5096366;28;20051;-73
2023/10/20 07:03:36;;;;;;;10.15;9.18;;;;;;;;;;5094038;28;20276;-73
2023/10/20 07:06:07;;;;;;;10.88;9.68;;;;;;;;;;5098195;28;20039;-73
2023/10/20 07:08:35;;;;;;;12.80;10.32;;;;;;;;;;5100413;27;20134;-69
2023/10/20 07:11:04;;;;;;;10.85;9.75;;;;;;;;;;5098591;27;20142;-69
2023/10/20 07:13:33;;;;;;;11.13;9.98;;;;;;;;;;5101354;27;20047;-69
2023/10/20 07:16:01;;;;;;;10.65;9.55;;;;;;;;;;5093345;28;20072;-69
2023/10/20 07:18:30;;;;;;;11.27;9.75;;;;;;;;;;5091664;27;21122;-69
2023/10/20 07:21:00;;;;;;;10.40;9.40;;;;;;;;;;5093456;28;20097;-69
2023/10/20 07:23:28;;;;;;;10.68;9.68;;;;;;;;;;5095912;28;20116;-69
2023/10/20 07:25:57;;;;;;;11.27;9.90;;;;;;;;;;5099595;28;20088;-70
2023/10/20 07:28:25;;;;;;;9.38;8.40;;;;;;;;;;5095707;27;20084;-68
2023/10/20 07:30:54;;;;;;;9.90;8.93;;;;;;;;;;5096572;28;20040;-69
2023/10/20 07:33:23;;;;;;;10.07;9.07;;;;;;;;;;5097552;28;20138;-70
2023/10/20 07:35:52;;;;;;;10.68;9.63;;;;;;;;;;5095832;27;20048;-71
2023/10/20 07:38:22;;;;;;;9.82;8.95;;;;;;;;;;5093498;27;20062;-70
2023/10/20 07:40:50;;;;;;;10.15;9.15;;;;;;;;;;5095187;27;20580;-69
2023/10/20 07:43:19;;;;;;;10.43;9.45;;;;;;;;;;5093883;27;20039;-70
2023/10/20 07:45:49;;;;;;;11.18;10.07;;;;;;;;;;5095720;28;20088;-69
2023/10/20 07:48:18;;;;;;;9.60;8.75;;;;;;;;;;5099121;27;20127;-70
2023/10/20 07:50:46;;;;;;;10.05;9.07;;;;;;;;;;5094911;28;21610;-68
2023/10/20 07:53:15;;;;;;;10.55;9.35;;;;;;;;;;5097034;28;20044;-69
2023/10/20 07:55:45;;;;;;;10.50;8.45;;;;;;;;;;5096896;28;20048;-67
2023/10/20 07:58:13;;;;;;;9.70;8.80;;;;;;;;;;5095653;28;20066;-69
2023/10/20 08:00:41;;;;;;;9.10;8.23;;;;;;;;;;5094975;28;20063;-69
2023/10/20 08:03:11;;;;;;;9.85;8.90;;;;;;;;;;5096781;28;20059;-69
2023/10/20 08:05:39;;;;;;;10.18;8.57;;;;;;;;;;5096156;28;20055;-69
2023/10/20 08:08:08;;;;;;;9.15;8.25;;;;;;;;;;5094100;28;20051;-69
2023/10/20 08:10:38;;;;;;;9.88;8.88;;;;;;;;;;5098175;28;20047;-68
2023/10/20 08:13:09;;;;;;;8.77;7.97;;;;;;;;;;5097112;28;20096;-69
2023/10/20 08:15:38;;;;;;;9.48;8.50;;;;;;;;;;5094440;28;20409;-69
2023/10/20 08:18:08;;;;;;;9.30;8.40;;;;;;;;;;5097544;28;20050;-68
2023/10/20 08:20:36;;;;;;;9.68;8.68;;;;;;;;;;5095954;28;20122;-68
2023/10/20 08:23:05;;;;;;;9.20;8.30;;;;;;;;;;5099688;28;20040;-68
2023/10/20 08:25:38;;;;;;;9.95;8.73;;;;;;;;;;5095969;28;20052;-69
2023/10/20 08:28:08;;;;;;;8.75;7.85;;;;;;;;;;5095214;28;20058;-68
2023/10/20 08:30:36;;;;;;;9.32;8.32;;;;;;;;;;5093966;28;20412;-70
2023/10/20 08:33:05;;;;;;;8.63;7.82;;;;;;;;;;5097076;28;20075;-69
2023/10/20 08:35:34;;;;;;;8.98;8.13;;;;;;;;;;5094547;28;20043;-69
2023/10/20 08:38:03;;;;;;;8.60;7.72;;;;;;;;;;5092793;28;20055;-67
2023/10/20 08:40:33;;;;;;;8.70;7.88;;;;;;;;;;5094542;28;20147;-67
2023/10/20 08:43:19;;;;;;;7.55;6.85;;;;;;;;;;5098965;28;20128;-67
2023/10/20 08:45:48;;;;;;;8.07;7.18;;;;;;;;;;5095043;28;20555;-68
2023/10/20 08:48:17;;;;;;;8.40;7.57;;;;;;;;;;5093850;28;20271;-67
2023/10/20 08:50:46;;;;;;;13.98;8.43;;;;;;;;;;5096636;28;20044;-67
2023/10/20 08:53:14;;;;;;;12.32;7.55;;;;;;;;;;5101825;28;20047;-67
2023/10/20 08:55:43;;;;;;;12.02;7.55;;;;;;;;;;5097554;28;20056;-66
2023/10/20 08:58:12;;;;;;;6.97;6.38;;;;;;;;;;5099909;27;20059;-67
2023/10/20 09:00:42;;;;;;;7.35;6.65;;;;;;;;;;5099284;27;20109;-67
2023/10/20 09:03:26;;;;;;;6.83;6.23;;;;;;;;;;5100562;27;20146;-67
2023/10/20 09:06:05;;;;;;;10.05;6.55;;;;;;;;;;5104383;27;20439;-67
2023/10/20 09:08:33;;;;;;;9.65;6.28;;;;;;;;;;5099393;28;20055;-67
2023/10/20 09:11:03;;;;;;;7.32;6.63;;;;;;;;;;5097228;28;20052;-67
2023/10/20 09:13:34;;;;;;;7.80;7.00;;;;;;;;;;5101068;28;20036;-66
2023/10/20 09:16:07;;;;;;;7.15;6.05;;;;;;;;;;5098416;28;20531;-67
2023/10/20 09:18:48;;;;;;;6.50;5.90;;;;;;;;;;5100117;28;20043;-67
2023/10/20 09:21:18;;;;;;;6.22;5.68;;;;;;;;;;5099307;28;20043;-66
2023/10/20 09:23:56;;;;;;;6.25;5.65;;;;;;;;;;5106535;27;20040;-68
2023/10/20 09:26:26;;;;;;;5.45;5.05;;;;;;;;;;5104306;28;20036;-68
2023/10/20 09:28:56;;;;;;;6.85;6.15;;;;;;;;;;5102720;28;20044;-67
2023/10/20 09:31:29;;;;;;;5.82;5.32;;;;;;;;;;5101145;28;20052;-67
2023/10/20 09:33:58;;;;;;;6.10;5.55;;;;;;;;;;5100799;28;20070;-68
2023/10/20 09:36:27;;;;;;;5.18;4.68;;;;;;;;;;5103411;28;20044;-69
2023/10/20 09:38:56;;;;;;;6.50;5.90;;;;;;;;;;5101595;28;20476;-69
2023/10/20 09:41:25;;;;;;;6.35;5.75;;;;;;;;;;5100262;28;20101;-69
2023/10/20 09:43:54;;;;;;;6.07;5.47;;;;;;;;;;5104770;27;20048;-69
2023/10/20 09:46:29;;;;;;;6.40;5.32;;;;;;;;;;5101741;28;20373;-67
2023/10/20 09:49:01;;;;;;;5.07;4.68;;;;;;;;;;5100244;28;20089;-67
2023/10/20 09:51:31;;;;;;;4.80;4.40;;;;;;;;;;5101213;28;20039;-68
2023/10/20 09:53:59;;;;;;;5.25;4.75;;;;;;;;;;5102744;27;20113;-68
2023/10/20 09:56:27;;;;;;;4.50;4.10;;;;;;;;;;5103257;27;20556;-68
2023/10/20 09:59:00;;;;;;;5.00;4.60;;;;;;;;;;5101984;27;20055;-67
2023/10/20 10:01:32;;;;;;;4.68;4.05;;;;;;;;;;5102544;28;20139;-67
2023/10/20 10:04:03;;;;;;;3.83;3.53;;;;;;;;;;5101976;28;20705;-67
2023/10/20 10:06:36;;;;;;;3.72;3.42;;;;;;;;;;5099449;28;20067;-67
2023/10/20 10:09:05;;;;;;;2.72;2.58;;;;;;;;;;5102416;28;20148;-68
2023/10/20 10:11:34;;;;;;;2.90;2.70;;;;;;;;;;5100664;27;20048;-67
2023/10/20 10:14:04;;;;;;;2.42;2.33;;;;;;;;;;5105174;27;20044;-67
2023/10/20 10:16:33;;;;;;;2.50;2.30;;;;;;;;;;5101101;28;20047;-68
2023/10/20 10:19:09;;;;;;;2.20;2.10;;;;;;;;;;5103902;27;20358;-68
2023/10/20 10:21:42;;;;;;;2.10;2.00;;;;;;;;;;5099606;28;20551;-68
2023/10/20 10:24:17;;;;;;;2.50;2.40;;;;;;;;;;5101103;27;20097;-67
2023/10/20 10:26:46;;;;;;;2.55;2.35;;;;;;;;;;5101428;27;20044;-67
2023/10/20 10:29:15;;;;;;;3.47;1.90;;;;;;;;;;5099832;27;20269;-67
2023/10/20 10:31:43;;;;;;;2.10;2.00;;;;;;;;;;5098028;28;20048;-67
2023/10/20 10:34:27;;;;;;;1.88;1.77;;;;;;;;;;5102001;28;20040;-67
2023/10/20 10:36:57;;;;;;;1.67;1.58;;;;;;;;;;5097387;28;20058;-67
2023/10/20 10:39:28;;;;;;;1.80;1.70;;;;;;;;;;5102410;27;20047;-67
2023/10/20 10:42:02;;;;;;;1.70;1.60;;;;;;;;;;5095107;28;20516;-67
2023/10/20 10:44:33;;;;;;;3.73;1.70;;;;;;;;;;5093431;28;20072;-68
2023/10/20 10:47:03;;;;;;;2.25;1.80;;;;;;;;;;5097476;28;20044;-68
2023/10/20 10:49:33;;;;;;;1.60;1.50;;;;;;;;;;5097983;28;20457;-68
2023/10/20 10:52:07;;;;;;;1.77;1.67;;;;;;;;;;5099636;28;20136;-68
2023/10/20 10:54:35;;;;;;;1.77;1.67;;;;;;;;;;5094929;28;20110;-68
2023/10/20 10:57:05;;;;;;;2.42;1.52;;;;;;;;;;5096369;27;20139;-70
2023/10/20 10:59:35;;;;;;;1.80;1.70;;;;;;;;;;5094973;28;20210;-69
2023/10/20 11:02:05;;;;;;;1.60;1.50;;;;;;;;;;5097642;28;20059;-70
2023/10/20 11:04:35;;;;;;;2.50;2.40;;;;;;;;;;5102377;28;20051;-70
2023/10/20 11:07:04;;;;;;;2.90;2.60;;;;;;;;;;5099371;27;20047;-70
2023/10/20 11:09:33;;;;;;;4.18;2.42;;;;;;;;;;5100837;28;20048;-71
2023/10/20 11:12:03;;;;;;;2.85;2.65;;;;;;;;;;5098909;27;20071;-71
2023/10/20 11:14:32;;;;;;;2.58;2.40;;;;;;;;;;5101626;27;20048;-71
2023/10/20 11:17:04;;;;;;;2.00;1.90;;;;;;;;;;5101112;28;20036;-71
2023/10/20 11:19:33;;;;;;;2.40;2.20;;;;;;;;;;5101352;28;20048;-70
2023/10/20 11:22:02;;;;;;;2.38;2.15;;;;;;;;;;5090843;28;20050;-71
2023/10/20 11:24:34;;;;;;;2.50;2.30;;;;;;;;;;5099001;28;20412;-72
2023/10/20 11:27:07;;;;;;;2.50;2.40;;;;;;;;;;5098037;28;20365;-72
2023/10/20 11:29:37;;;;;;;2.00;1.88;;;;;;;;;;5097428;28;20130;-70
2023/10/20 11:32:25;;;;;;;2.35;1.95;;;;;;;;;;5097072;28;20361;-70
2023/10/20 11:34:54;;;;;;;2.45;1.95;;;;;;;;;;5099414;27;20042;-70
2023/10/20 11:37:24;;;;;;;1.77;1.67;;;;;;;;;;5098373;28;20098;-69
2023/10/20 11:39:53;;;;;;;2.05;1.85;;;;;;;;;;5100678;28;20047;-69
2023/10/20 11:42:21;;;;;;;2.00;1.90;;;;;;;;;;5098128;28;20039;-70
2023/10/20 11:44:49;;;;;;;2.38;1.85;;;;;;;;;;5100585;28;20054;-70
2023/10/20 11:47:18;;;;;;;1.50;1.40;;;;;;;;;;5098636;28;20568;-69
2023/10/20 11:49:47;;;;;;;1.73;1.63;;;;;;;;;;5098072;28;20050;-69
2023/10/20 11:52:15;;;;;;;8.77;2.03;;;;;;;;;;5099289;28;20075;-71
2023/10/20 11:54:46;;;;;;;1.90;1.80;;;;;;;;;;5095631;28;20091;-70
2023/10/20 11:57:15;;;;;;;1.55;1.45;;;;;;;;;;5099661;28;20055;-70
2023/10/20 11:59:43;;;;;;;2.08;1.98;;;;;;;;;;5099658;28;20047;-70
2023/10/20 12:02:12;;;;;;;1.70;1.60;;;;;;;;;;5098255;28;20274;-70
2023/10/20 12:04:40;;;;;;;1.75;1.65;;;;;;;;;;5100606;28;20055;-71
2023/10/20 12:07:09;;;;;;;3.20;1.88;;;;;;;;;;5100565;28;20507;-71
2023/10/20 12:09:38;;;;;;;1.70;1.60;;;;;;;;;;5097243;28;20561;-71
2023/10/20 12:12:08;;;;;;;1.60;1.50;;;;;;;;;;5099890;28;20058;-71
2023/10/20 12:14:36;;;;;;;1.60;1.50;;;;;;;;;;5099199;28;20036;-72
2023/10/20 12:17:04;;;;;;;1.70;1.60;;;;;;;;;;5096322;28;20066;-71
2023/10/20 12:19:33;;;;;;;1.70;1.60;;;;;;;;;;5098347;27;20055;-72
2023/10/20 12:22:02;;;;;;;1.67;1.58;;;;;;;;;;5094984;28;20129;-71
2023/10/20 12:24:30;;;;;;;1.80;1.70;;;;;;;;;;5099248;28;20088;-71
2023/10/20 12:26:59;;;;;;;2.40;1.80;;;;;;;;;;5099063;28;20050;-72
2023/10/20 12:29:29;;;;;;;1.70;1.60;;;;;;;;;;5100406;28;20043;-71
2023/10/20 12:31:58;;;;;;;2.60;1.85;;;;;;;;;;5099973;27;20043;-71
2023/10/20 12:34:27;;;;;;;1.88;1.77;;;;;;;;;;5100826;27;20048;-69
2023/10/20 12:36:56;;;;;;;1.60;1.50;;;;;;;;;;5100651;27;20396;-71
2023/10/20 12:39:25;;;;;;;2.00;1.90;;;;;;;;;;5101882;27;20120;-71
2023/10/20 12:41:54;;;;;;;1.70;1.60;;;;;;;;;;5102311;28;20092;-70
2023/10/20 12:44:23;;;;;;;4.63;1.77;;;;;;;;;;5101307;28;20532;-69
2023/10/20 12:46:52;;;;;;;1.70;1.60;;;;;;;;;;5101779;28;20044;-69
2023/10/20 12:49:21;;;;;;;1.52;1.42;;;;;;;;;;5101956;28;20168;-70
2023/10/20 12:51:49;;;;;;;2.80;1.52;;;;;;;;;;5101802;28;20059;-70
2023/10/20 12:54:17;;;;;;;2.10;1.88;;;;;;;;;;5098942;28;20089;-71
2023/10/20 12:56:46;;;;;;;2.40;1.20;;;;;;;;;;5100991;28;20472;-70
2023/10/20 12:59:15;;;;;;;1.45;1.42;;;;;;;;;;5097437;28;20044;-67
2023/10/20 13:01:43;;;;;;;1.80;1.70;;;;;;;;;;5103670;27;20043;-67
2023/10/20 13:04:13;;;;;;;1.65;1.55;;;;;;;;;;5103009;28;20054;-67
2023/10/20 13:06:41;;;;;;;1.60;1.50;;;;;;;;;;5099899;28;20047;-67
2023/10/20 13:09:26;;;;;;;1.75;1.65;;;;;;;;;;5101484;28;20047;-67
2023/10/20 13:11:56;;;;;;;1.42;1.40;;;;;;;;;;5102659;28;20048;-66
2023/10/20 13:14:24;;;;;;;1.58;1.50;;;;;;;;;;5102257;28;20496;-67
2023/10/20 13:16:53;;;;;;;1.60;1.50;;;;;;;;;;5100134;28;20075;-68
2023/10/20 13:19:23;;;;;;;1.50;1.40;;;;;;;;;;5096101;28;20105;-68
2023/10/20 13:21:51;;;;;;;1.50;1.40;;;;;;;;;;5101391;27;20059;-67
2023/10/20 13:24:19;;;;;;;1.67;1.58;;;;;;;;;;5097301;27;20052;-66
2023/10/20 13:26:49;;;;;;;2.08;1.98;;;;;;;;;;5105210;27;20097;-66
2023/10/20 13:29:17;;;;;;;1.88;1.77;;;;;;;;;;5099426;28;20039;-67
2023/10/20 13:31:46;;;;;;;1.65;1.55;;;;;;;;;;5103001;27;20046;-67
2023/10/20 13:34:14;;;;;;;1.60;1.50;;;;;;;;;;5104284;27;20048;-66
2023/10/20 13:36:44;;;;;;;1.55;1.50;;;;;;;;;;5097659;27;20512;-66
2023/10/20 13:39:12;;;;;;;1.30;1.30;;;;;;;;;;5099447;27;20129;-67
2023/10/20 13:41:44;;;;;;;1.60;1.50;;;;;;;;;;5099011;27;20075;-66
2023/10/20 13:44:16;;;;;;;1.70;1.60;;;;;;;;;;5099226;27;20063;-67
2023/10/20 13:46:45;;;;;;;1.65;1.60;;;;;;;;;;5102265;27;20043;-67
2023/10/20 13:49:13;;;;;;;1.63;1.52;;;;;;;;;;5099573;27;20051;-66
2023/10/20 13:51:42;;;;;;;2.97;1.67;;;;;;;;;;5099327;27;20048;-66
2023/10/20 13:54:11;;;;;;;2.97;1.75;;;;;;;;;;5102790;28;20071;-66
2023/10/20 13:56:40;;;;;;;1.50;1.40;;;;;;;;;;5104377;27;20412;-66
2023/10/20 13:59:08;;;;;;;1.40;1.40;;;;;;;;;;5095889;28;20522;-65
2023/10/20 14:01:39;;;;;;;1.58;1.48;;;;;;;;;;5100504;27;20039;-66
2023/10/20 14:04:07;;;;;;;1.23;1.23;;;;;;;;;;5101022;27;20040;-65
2023/10/20 14:06:37;;;;;;;1.30;1.30;;;;;;;;;;5098858;27;20055;-66
2023/10/20 14:09:08;;;;;;;1.25;1.20;;;;;;;;;;5100123;27;20050;-66
2023/10/20 14:11:38;;;;;;;1.60;1.50;;;;;;;;;;5098997;28;20070;-65
2023/10/20 14:14:06;;;;;;;1.25;1.23;;;;;;;;;;5095147;28;20044;-67
2023/10/20 14:16:34;;;;;;;2.05;1.40;;;;;;;;;;5104962;27;20571;-67
2023/10/20 14:19:03;;;;;;;1.50;1.50;;;;;;;;;;5099391;27;20412;-67
2023/10/20 14:21:32;;;;;;;1.55;1.48;;;;;;;;;;5100523;27;20104;-68
2023/10/20 14:24:00;;;;;;;2.00;1.90;;;;;;;;;;5095002;27;20047;-68
2023/10/20 14:26:29;;;;;;;1.90;1.80;;;;;;;;;;5101082;27;20400;-68
2023/10/20 14:28:59;;;;;;;2.00;1.90;;;;;;;;;;5099011;27;20056;-68
2023/10/20 14:31:30;;;;;;;1.88;1.77;;;;;;;;;;5097075;27;20044;-67
2023/10/20 14:33:59;;;;;;;1.98;1.88;;;;;;;;;;5099035;27;20060;-66
2023/10/20 14:36:27;;;;;;;1.80;1.70;;;;;;;;;;5099255;28;20101;-66
2023/10/20 14:38:56;;;;;;;1.80;1.70;;;;;;;;;;5097676;27;20074;-67
2023/10/20 14:41:25;;;;;;;2.08;1.98;;;;;;;;;;5100548;28;20101;-66
2023/10/20 14:43:53;;;;;;;2.10;2.00;;;;;;;;;;5104543;27;20400;-66
2023/10/20 14:46:23;;;;;;;2.20;2.10;;;;;;;;;;5098741;27;20169;-66
2023/10/20 14:48:51;;;;;;;3.40;1.80;;;;;;;;;;5097164;27;20048;-67
2023/10/20 14:51:20;;;;;;;1.95;1.80;;;;;;;;;;5095442;28;20089;-68
2023/10/20 14:53:49;;;;;;;2.05;1.95;;;;;;;;;;5099856;27;20176;-66
2023/10/20 14:56:17;;;;;;;1.85;1.80;;;;;;;;;;5098335;28;20052;-67
2023/10/20 14:58:46;;;;;;;2.95;2.00;;;;;;;;;;5097095;27;20468;-66
2023/10/20 15:01:14;;;;;;;1.58;1.58;;;;;;;;;;5097198;27;20043;-67
2023/10/20 15:03:44;;;;;;;1.90;1.80;;;;;;;;;;5101096;27;20043;-66
2023/10/20 15:06:15;;;;;;;1.58;1.58;;;;;;;;;;5102044;27;20151;-66
2023/10/20 15:08:43;;;;;;;1.52;1.52;;;;;;;;;;5100915;27;20039;-66
2023/10/20 15:11:12;;;;;;;1.90;1.80;;;;;;;;;;5099872;28;20054;-66
2023/10/20 15:13:40;;;;;;;1.63;1.63;;;;;;;;;;5099842;27;20070;-67
2023/10/20 15:16:09;;;;;;;1.50;1.50;;;;;;;;;;5101674;27;20151;-66
2023/10/20 15:18:38;;;;;;;3.75;1.60;;;;;;;;;;5098282;27;20052;-66